Time;durP1;ratioP1;P1;durP2;ratioP2;P2;SDS_P1;SDS_P2;PMS_P1;PMS_P2;Temp;Humidity;BMP_temperature;BMP_pressure;BME280_temperature;BME280_humidity;BME280_pressure;Samples;Min_cycle;Max_cycle;Signal;HPM_P1;HPM_P2
2021/08/17 00:00:16;;;;;;;;;;;19.00;61.20;;;;;;5060783;28;20484;-75
2021/08/17 00:02:42;;;;;;;;;;;19.00;61.20;;;;;;5118046;27;19930;-75
2021/08/17 00:05:09;;;;;;;;;;;19.00;61.20;;;;;;5101898;27;19925;-75
2021/08/17 00:07:35;;;;;;;;;;;19.00;61.40;;;;;;5052507;28;19989;-74
2021/08/17 00:10:03;;;;;;;;;;;19.00;61.50;;;;;;5052308;28;19933;-74
2021/08/17 00:12:29;;;;;;;;;;;19.00;61.50;;;;;;5052397;28;20245;-75
2021/08/17 00:14:55;;;;;;;;;;;19.00;61.60;;;;;;5053071;27;19936;-75
2021/08/17 00:17:21;;;;;;;;;;;18.90;61.60;;;;;;5052089;27;19925;-74
2021/08/17 00:19:47;;;;;;;;;;;18.90;61.60;;;;;;5051990;28;19932;-75
2021/08/17 00:22:14;;;;;;;;;;;18.90;61.70;;;;;;5052199;28;19925;-75
2021/08/17 00:24:40;;;;;;;;;;;18.90;61.70;;;;;;5051838;28;19935;-75
2021/08/17 00:27:06;;;;;;;;;;;18.90;61.80;;;;;;5052138;28;19993;-75
2021/08/17 00:29:32;;;;;;;;;;;18.90;61.80;;;;;;5051709;28;20392;-75
2021/08/17 00:31:59;;;;;;;;;;;18.90;61.80;;;;;;5052164;28;20396;-75
2021/08/17 00:34:25;;;;;;;;;;;18.90;62.00;;;;;;5051713;28;19925;-75
2021/08/17 00:36:51;;;;;;;;;;;18.90;62.00;;;;;;5033729;28;19964;-75
2021/08/17 00:39:18;;;;;;;;;;;18.90;62.20;;;;;;5052092;28;19924;-75
2021/08/17 00:41:45;;;;;;;;;;;18.80;62.20;;;;;;5051547;28;19948;-75
2021/08/17 00:44:33;;;;;;;;;;;18.80;62.30;;;;;;5051659;28;19950;-75
2021/08/17 00:46:59;;;;;;;;;;;18.80;62.40;;;;;;5051478;27;19946;-75
2021/08/17 00:49:26;;;;;;;;;;;18.80;62.50;;;;;;5051587;28;19925;-75
2021/08/17 00:51:53;;;;;;;;;;;18.80;62.60;;;;;;5051537;27;20356;-74
2021/08/17 00:54:20;;;;;;;;;;;18.80;62.60;;;;;;5051561;28;19932;-75
2021/08/17 00:56:47;;;;;;;;;;;18.80;62.60;;;;;;5054163;27;19932;-75
2021/08/17 00:59:13;;;;;;;;;;;18.80;62.70;;;;;;5076140;27;19923;-75
2021/08/17 01:01:39;;;;;;;;;;;18.80;62.70;;;;;;5096232;27;19925;-75
2021/08/17 01:04:09;;;;;;;;;;;18.80;62.80;;;;;;5051282;28;19953;-75
2021/08/17 01:06:36;;;;;;;;;;;18.80;62.90;;;;;;5051051;28;20364;-75
2021/08/17 01:09:04;;;;;;;;;;;18.80;62.90;;;;;;5051668;28;19966;-75
2021/08/17 01:11:32;;;;;;;;;;;18.80;63.00;;;;;;5050990;28;19951;-75
2021/08/17 01:14:00;;;;;;;;;;;18.80;63.00;;;;;;5051069;28;19929;-75
2021/08/17 01:16:27;;;;;;;;;;;18.80;63.10;;;;;;5051146;28;20061;-75
2021/08/17 01:18:54;;;;;;;;;;;18.70;63.20;;;;;;5050810;28;19925;-75
2021/08/17 01:21:20;;;;;;;;;;;18.80;63.40;;;;;;5051026;28;19933;-75
2021/08/17 01:23:48;;;;;;;;;;;18.80;63.50;;;;;;5050952;28;19928;-74
2021/08/17 01:26:17;;;;;;;;;;;18.80;63.50;;;;;;5050767;28;19952;-74
2021/08/17 01:28:44;;;;;;;;;;;18.80;63.60;;;;;;5051088;28;19977;-74
2021/08/17 01:31:19;;;;;;;;;;;18.70;63.60;;;;;;5050794;28;19924;-75
2021/08/17 01:33:46;;;;;;;;;;;18.70;64.00;;;;;;5051093;28;19929;-74
2021/08/17 01:36:27;;;;;;;;;;;18.70;63.80;;;;;;5051162;28;19932;-74
2021/08/17 01:38:54;;;;;;;;;;;18.70;64.00;;;;;;5050562;28;19932;-75
2021/08/17 01:41:21;;;;;;;;;;;18.70;64.20;;;;;;5050782;28;19982;-75
2021/08/17 01:43:52;;;;;;;;;;;18.60;64.30;;;;;;5050824;28;20004;-74
2021/08/17 01:46:18;;;;;;;;;;;18.60;64.30;;;;;;5033697;28;19925;-75
2021/08/17 01:48:45;;;;;;;;;;;18.60;64.30;;;;;;5050408;28;19925;-75
2021/08/17 01:51:12;;;;;;;;;;;18.60;64.50;;;;;;5050838;28;19925;-75
2021/08/17 01:53:39;;;;;;;;;;;18.60;64.80;;;;;;5047455;27;19932;-75
2021/08/17 01:56:07;;;;;;;;;;;18.50;64.70;;;;;;5050126;28;19969;-75
2021/08/17 01:58:34;;;;;;;;;;;18.60;65.00;;;;;;5069912;27;20299;-74
2021/08/17 02:01:02;;;;;;;;;;;18.50;64.90;;;;;;5123565;27;19927;-74
2021/08/17 02:03:29;;;;;;;;;;;18.60;65.10;;;;;;5050330;28;20390;-75
2021/08/17 02:05:56;;;;;;;;;;;18.50;65.00;;;;;;5043270;28;19925;-75
2021/08/17 02:08:23;;;;;;;;;;;18.50;65.10;;;;;;5049159;28;20025;-74
2021/08/17 02:10:50;;;;;;;;;;;18.50;65.20;;;;;;5032134;28;19971;-75
2021/08/17 02:13:19;;;;;;;;;;;18.50;65.30;;;;;;5105041;27;19923;-75
2021/08/17 02:15:46;;;;;;;;;;;18.50;65.30;;;;;;5067147;27;19928;-75
2021/08/17 02:18:13;;;;;;;;;;;18.50;65.40;;;;;;5050070;27;20284;-75
2021/08/17 02:20:40;;;;;;;;;;;18.50;65.40;;;;;;5032138;28;19929;-75
2021/08/17 02:23:08;;;;;;;;;;;18.50;65.50;;;;;;5050062;28;20304;-75
2021/08/17 02:25:37;;;;;;;;;;;18.50;65.60;;;;;;5050083;28;20329;-75
2021/08/17 02:28:04;;;;;;;;;;;18.50;65.70;;;;;;5036192;28;19978;-75
2021/08/17 02:30:32;;;;;;;;;;;18.50;65.80;;;;;;5056800;27;19929;-74
2021/08/17 02:33:01;;;;;;;;;;;18.50;65.90;;;;;;5049747;28;19925;-75
2021/08/17 02:35:39;;;;;;;;;;;18.40;66.00;;;;;;5049880;28;19935;-75
2021/08/17 02:38:23;;;;;;;;;;;18.40;65.90;;;;;;5065475;27;19975;-75
2021/08/17 02:40:50;;;;;;;;;;;18.50;66.00;;;;;;5049900;28;19925;-75
2021/08/17 02:43:23;;;;;;;;;;;18.40;66.10;;;;;;5049768;28;20364;-75
2021/08/17 02:45:59;;;;;;;;;;;18.40;66.00;;;;;;5049447;28;19925;-75
2021/08/17 02:48:26;;;;;;;;;;;18.40;66.20;;;;;;5049957;28;19925;-75
2021/08/17 02:51:04;;;;;;;;;;;18.50;66.10;;;;;;5031843;28;20008;-75
2021/08/17 02:53:31;;;;;;;;;;;18.50;66.10;;;;;;5049329;28;20408;-75
2021/08/17 02:55:58;;;;;;;;;;;18.40;66.00;;;;;;5049983;28;19927;-75
2021/08/17 02:58:25;;;;;;;;;;;18.50;66.10;;;;;;5049427;28;20027;-75
2021/08/17 03:00:52;;;;;;;;;;;18.40;66.00;;;;;;5049349;28;20400;-74
2021/08/17 03:03:22;;;;;;;;;;;18.50;66.00;;;;;;5054325;27;19925;-74
2021/08/17 03:05:58;;;;;;;;;;;18.50;66.00;;;;;;5067772;28;19925;-74
2021/08/17 03:08:25;;;;;;;;;;;18.50;66.00;;;;;;5094003;27;19966;-75
2021/08/17 03:10:52;;;;;;;;;;;18.50;66.00;;;;;;5031834;28;19964;-74
2021/08/17 03:13:20;;;;;;;;;;;18.50;65.90;;;;;;5032087;28;19965;-74
2021/08/17 03:15:51;;;;;;;;;;;18.50;66.00;;;;;;5049394;28;19936;-74
2021/08/17 03:18:24;;;;;;;;;;;18.50;66.00;;;;;;5049590;28;19931;-74
2021/08/17 03:20:53;;;;;;;;;;;18.50;66.00;;;;;;5060980;27;20364;-74
2021/08/17 03:23:20;;;;;;;;;;;18.50;66.00;;;;;;5052841;28;19932;-74
2021/08/17 03:25:48;;;;;;;;;;;18.50;66.10;;;;;;5054307;27;20284;-74
2021/08/17 03:28:32;;;;;;;;;;;18.50;66.10;;;;;;5035087;27;20445;-74
2021/08/17 03:30:59;;;;;;;;;;;18.40;66.00;;;;;;5060021;27;19924;-75
2021/08/17 03:33:26;;;;;;;;;;;18.50;66.10;;;;;;5052878;28;19925;-75
2021/08/17 03:35:53;;;;;;;;;;;18.40;66.00;;;;;;5052515;28;20057;-75
2021/08/17 03:38:21;;;;;;;;;;;18.50;67.10;;;;;;5035363;28;20057;-75
2021/08/17 03:40:48;;;;;;;;;;;18.40;66.10;;;;;;5018675;27;19932;-74
2021/08/17 03:43:14;;;;;;;;;;;18.40;66.10;;;;;;5040152;28;20304;-74
2021/08/17 03:45:41;;;;;;;;;;;18.40;66.10;;;;;;5034727;28;19940;-74
2021/08/17 03:48:27;;;;;;;;;;;18.40;66.10;;;;;;5038238;28;19925;-74
2021/08/17 03:50:54;;;;;;;;;;;18.40;66.20;;;;;;5061050;27;19928;-74
2021/08/17 03:53:21;;;;;;;;;;;18.40;66.30;;;;;;5052343;28;19928;-74
2021/08/17 03:55:48;;;;;;;;;;;18.30;66.20;;;;;;5053049;27;19925;-74
2021/08/17 03:58:15;;;;;;;;;;;18.40;66.20;;;;;;5053063;28;19932;-74
2021/08/17 04:00:42;;;;;;;;;;;18.30;66.20;;;;;;5052596;28;19928;-74
2021/08/17 04:03:12;;;;;;;;;;;18.30;66.20;;;;;;5052414;28;19963;-74
2021/08/17 04:05:46;;;;;;;;;;;18.30;66.30;;;;;;5051994;28;19928;-75
2021/08/17 04:08:13;;;;;;;;;;;18.30;66.30;;;;;;5052080;28;20333;-75
2021/08/17 04:10:47;;;;;;;;;;;18.30;66.30;;;;;;5034610;28;20337;-74
2021/08/17 04:13:17;;;;;;;;;;;18.30;66.30;;;;;;5052464;28;19925;-74
2021/08/17 04:16:08;;;;;;;;;;;18.30;66.30;;;;;;5052421;28;19925;-74
2021/08/17 04:18:35;;;;;;;;;;;18.30;66.40;;;;;;5033081;28;19986;-74
2021/08/17 04:21:02;;;;;;;;;;;18.30;66.50;;;;;;5051788;28;19962;-74
2021/08/17 04:23:32;;;;;;;;;;;18.30;66.40;;;;;;5052146;28;20030;-74
2021/08/17 04:25:59;;;;;;;;;;;18.20;66.40;;;;;;5050905;28;19928;-74
2021/08/17 04:28:27;;;;;;;;;;;18.20;66.50;;;;;;5043611;28;20525;-74
2021/08/17 04:30:58;;;;;;;;;;;18.20;66.40;;;;;;5050775;28;19928;-74
2021/08/17 04:33:25;;;;;;;;;;;18.10;67.40;;;;;;5051861;28;19925;-74
2021/08/17 04:35:58;;;;;;;;;;;18.10;66.50;;;;;;5051496;28;19925;-74
2021/08/17 04:38:26;;;;;;;;;;;18.10;66.50;;;;;;5051063;28;19925;-74
2021/08/17 04:40:54;;;;;;;;;;;18.10;66.50;;;;;;5051595;28;20019;-74
2021/08/17 04:43:22;;;;;;;;;;;18.10;66.20;;;;;;5051848;28;19936;-74
2021/08/17 04:45:52;;;;;;;;;;;18.10;66.00;;;;;;5051477;28;20292;-74
2021/08/17 04:48:19;;;;;;;;;;;18.10;65.90;;;;;;5051337;28;19925;-73
2021/08/17 04:50:58;;;;;;;;;;;18.00;66.00;;;;;;5064686;28;20039;-74
2021/08/17 04:53:26;;;;;;;;;;;18.00;66.10;;;;;;5051658;28;19925;-74
2021/08/17 04:55:59;;;;;;;;;;;18.00;66.00;;;;;;5051068;27;19939;-74
2021/08/17 04:58:25;;;;;;;;;;;18.10;65.80;;;;;;5051498;28;19932;-74
2021/08/17 05:00:53;;;;;;;;;;;18.10;65.60;;;;;;5051121;28;20319;-74
2021/08/17 05:03:29;;;;;;;;;;;18.10;65.40;;;;;;5050950;28;19925;-74
2021/08/17 05:05:58;;;;;;;;;;;18.10;65.20;;;;;;5051206;28;20296;-74
2021/08/17 05:08:24;;;;;;;;;;;18.20;65.00;;;;;;5048982;28;19929;-74
2021/08/17 05:10:59;;;;;;;;;;;18.20;64.80;;;;;;5050986;28;19990;-72
2021/08/17 05:13:26;;;;;;;;;;;18.20;64.70;;;;;;5033576;28;19947;-74
2021/08/17 05:15:53;;;;;;;;;;;18.20;64.50;;;;;;5051392;28;19961;-74
2021/08/17 05:18:42;;;;;;;;;;;18.20;64.50;;;;;;5050477;28;19966;-74
2021/08/17 05:21:09;;;;;;;;;;;18.20;64.50;;;;;;5052100;27;19925;-74
2021/08/17 05:23:36;;;;;;;;;;;18.20;64.60;;;;;;5033174;28;20417;-74
2021/08/17 05:26:07;;;;;;;;;;;18.20;64.80;;;;;;5050717;28;19929;-74
2021/08/17 05:28:34;;;;;;;;;;;18.10;65.10;;;;;;5051017;28;19925;-74
2021/08/17 05:31:08;;;;;;;;;;;18.10;65.30;;;;;;5032772;28;20408;-74
2021/08/17 05:33:35;;;;;;;;;;;18.00;65.60;;;;;;5050680;28;20303;-74
2021/08/17 05:36:01;;;;;;;;;;;18.00;66.00;;;;;;5050417;28;19931;-74
2021/08/17 05:38:32;;;;;;;;;;;18.00;66.20;;;;;;5034008;28;20036;-74
2021/08/17 05:40:59;;;;;;;;;;;18.00;66.40;;;;;;5050753;28;19933;-74
2021/08/17 05:43:39;;;;;;;;;;;18.00;66.70;;;;;;5050941;28;20485;-74
2021/08/17 05:46:08;;;;;;;;;;;18.00;66.90;;;;;;5085562;27;19969;-74
2021/08/17 05:48:35;;;;;;;;;;;18.00;67.00;;;;;;5050867;28;20011;-74
2021/08/17 05:51:03;;;;;;;;;;;18.00;67.00;;;;;;5064268;28;19924;-74
2021/08/17 05:53:40;;;;;;;;;;;18.00;67.00;;;;;;5050489;28;20033;-74
2021/08/17 05:56:07;;;;;;;;;;;18.10;67.20;;;;;;5050055;28;19932;-74
2021/08/17 05:58:35;;;;;;;;;;;18.00;67.10;;;;;;5050448;28;20000;-74
2021/08/17 06:01:02;;;;;;;;;;;18.10;67.00;;;;;;5050282;28;19932;-74
2021/08/17 06:03:48;;;;;;;;;;;18.10;67.00;;;;;;5049722;27;19925;-74
2021/08/17 06:06:15;;;;;;;;;;;18.00;66.80;;;;;;5050143;28;19971;-74
2021/08/17 06:08:43;;;;;;;;;;;18.10;66.70;;;;;;5048277;27;19925;-74
2021/08/17 06:11:12;;;;;;;;;;;18.10;66.60;;;;;;5063719;27;19928;-74
2021/08/17 06:13:41;;;;;;;;;;;18.10;66.50;;;;;;5048935;27;19925;-74
2021/08/17 06:16:21;;;;;;;;;;;18.10;66.70;;;;;;5045980;27;20457;-74
2021/08/17 06:18:51;;;;;;;;;;;18.10;66.60;;;;;;5054499;27;19966;-74
2021/08/17 06:21:22;;;;;;;;;;;18.10;66.60;;;;;;5050425;27;20012;-75
2021/08/17 06:23:56;;;;;;;;;;;18.10;66.70;;;;;;5049318;28;19925;-75
2021/08/17 06:26:29;;;;;;;;;;;18.00;66.70;;;;;;5055216;28;19924;-74
2021/08/17 06:28:58;;;;;;;;;;;18.00;66.80;;;;;;5049108;28;19928;-74
2021/08/17 06:31:27;;;;;;;;;;;18.00;66.80;;;;;;5048489;28;20316;-74
2021/08/17 06:33:57;;;;;;;;;;;18.00;66.80;;;;;;5049051;28;20003;-75
2021/08/17 06:36:24;;;;;;;;;;;18.10;66.80;;;;;;5049075;27;20349;-74
2021/08/17 06:38:50;;;;;;;;;;;18.10;66.50;;;;;;5063426;27;19929;-74
2021/08/17 06:41:17;;;;;;;;;;;18.10;66.40;;;;;;5048098;27;19933;-74
2021/08/17 06:43:43;;;;;;;;;;;18.10;66.20;;;;;;5048814;27;19951;-74
2021/08/17 06:46:09;;;;;;;;;;;18.10;65.80;;;;;;5044672;27;19932;-74
2021/08/17 06:48:35;;;;;;;;;;;18.10;65.70;;;;;;5062607;27;20453;-74
2021/08/17 06:51:02;;;;;;;;;;;18.10;65.70;;;;;;5048135;27;19929;-74
2021/08/17 06:53:28;;;;;;;;;;;18.10;65.70;;;;;;5049295;27;19924;-78
2021/08/17 06:55:54;;;;;;;;;;;18.20;65.70;;;;;;5052459;28;20253;-74
2021/08/17 06:58:20;;;;;;;;;;;18.20;65.40;;;;;;5038749;27;19991;-78
2021/08/17 07:00:48;;;;;;;;;;;18.20;65.30;;;;;;5052150;28;19932;-76
2021/08/17 07:03:14;;;;;;;;;;;18.20;65.30;;;;;;5052286;28;19925;-76
2021/08/17 07:05:42;;;;;;;;;;;18.20;65.40;;;;;;5074233;27;19963;-75
2021/08/17 07:08:09;;;;;;;;;;;18.20;65.40;;;;;;5052328;28;19925;-74
2021/08/17 07:10:36;;;;;;;;;;;18.20;65.50;;;;;;5052598;28;19931;-74
2021/08/17 07:13:02;;;;;;;;;;;18.20;65.60;;;;;;5052413;28;19929;-82
2021/08/17 07:15:29;;;;;;;;;;;18.20;65.50;;;;;;5065817;28;20534;-81
